createdAt,value
2018-11-01T00:01:37.610Z,9.30
2018-11-01T00:04:06.090Z,9.30
2018-11-01T00:06:37.663Z,9.20
2018-11-01T00:09:08.388Z,9.20
2018-11-01T00:11:36.957Z,9.10
2018-11-01T00:14:06.822Z,9.10
2018-11-01T00:16:35.291Z,9.10
2018-11-01T00:19:04.251Z,9.10
2018-11-01T00:21:32.715Z,9.10
2018-11-01T00:24:01.202Z,9.20
2018-11-01T00:26:29.761Z,9.20
2018-11-01T00:28:58.291Z,9.20
2018-11-01T00:31:26.765Z,9.20
2018-11-01T00:33:55.311Z,9.20
2018-11-01T00:36:23.782Z,9.20
2018-11-01T00:38:52.311Z,9.30
2018-11-01T00:41:20.882Z,9.30
2018-11-01T00:43:49.399Z,9.20
2018-11-01T00:46:17.929Z,9.20
2018-11-01T00:48:46.389Z,9.20
2018-11-01T00:51:14.878Z,9.10
2018-11-01T00:53:43.361Z,9.20
2018-11-01T00:56:12.044Z,9.20
2018-11-01T00:58:40.542Z,9.30
2018-11-01T01:01:09.895Z,9.20
2018-11-01T01:03:38.413Z,9.20
2018-11-01T01:06:06.948Z,9.20
2018-11-01T01:08:35.452Z,9.20
2018-11-01T01:11:03.962Z,9.20
2018-11-01T01:13:32.447Z,9.20
2018-11-01T01:16:00.961Z,9.30
2018-11-01T01:18:29.460Z,9.30
2018-11-01T01:20:57.872Z,9.50
2018-11-01T01:23:26.340Z,9.50
2018-11-01T01:25:54.821Z,9.50
2018-11-01T01:28:23.291Z,9.60
2018-11-01T01:30:51.753Z,9.60
2018-11-01T01:33:20.216Z,9.60
2018-11-01T01:35:48.727Z,9.60
2018-11-01T01:38:17.228Z,9.50
2018-11-01T01:40:45.685Z,9.60
2018-11-01T01:43:14.211Z,9.60
2018-11-01T01:45:42.645Z,9.50
2018-11-01T01:48:11.152Z,9.50
2018-11-01T01:50:39.673Z,9.40
2018-11-01T01:53:08.129Z,9.50
2018-11-01T01:55:36.601Z,9.40
2018-11-01T01:58:05.156Z,9.40
2018-11-01T02:00:33.644Z,9.40
2018-11-01T02:03:02.094Z,9.30
2018-11-01T02:05:30.594Z,9.30
2018-11-01T02:07:59.090Z,9.30
2018-11-01T02:10:27.555Z,9.40
2018-11-01T02:12:56.159Z,9.30
2018-11-01T02:15:24.655Z,9.30
2018-11-01T02:17:53.145Z,9.30
2018-11-01T02:20:21.700Z,9.30
2018-11-01T02:22:50.171Z,9.40
2018-11-01T02:25:18.701Z,9.30
2018-11-01T02:27:51.364Z,9.40
2018-11-01T02:30:19.892Z,9.40
2018-11-01T02:32:48.383Z,9.40
2018-11-01T02:35:18.181Z,9.30
2018-11-01T02:37:46.764Z,9.30
2018-11-01T02:40:15.696Z,9.10
2018-11-01T02:42:44.495Z,9.10
2018-11-01T02:45:13.952Z,9.00
2018-11-01T02:47:42.479Z,8.90
2018-11-01T02:50:12.146Z,8.80
2018-11-01T02:52:41.452Z,8.80
2018-11-01T02:55:10.486Z,8.80
2018-11-01T02:57:38.951Z,8.80
2018-11-01T03:00:12.819Z,8.80
2018-11-01T03:02:41.375Z,8.80
2018-11-01T03:05:10.672Z,8.80
2018-11-01T03:07:39.291Z,8.80
2018-11-01T03:10:10.594Z,8.80
2018-11-01T03:12:39.719Z,8.90
2018-11-01T03:15:09.701Z,9.00
2018-11-01T03:17:38.141Z,9.00
2018-11-01T03:20:07.792Z,9.00
2018-11-01T03:22:36.391Z,8.90
2018-11-01T03:25:04.918Z,8.90
2018-11-01T03:27:33.439Z,9.00
2018-11-01T03:30:01.945Z,8.90
2018-11-01T03:32:30.433Z,8.90
2018-11-01T03:34:59.144Z,8.90
2018-11-01T03:37:27.619Z,9.00
2018-11-01T03:39:56.068Z,9.10
2018-11-01T03:42:24.564Z,9.10
2018-11-01T03:44:53.103Z,9.20
2018-11-01T03:47:21.619Z,9.20
2018-11-01T03:49:50.104Z,9.20
2018-11-01T03:52:18.611Z,9.20
2018-11-01T03:54:47.151Z,9.20
2018-11-01T03:57:15.584Z,9.20
2018-11-01T03:59:44.065Z,9.30
2018-11-01T04:02:12.695Z,9.40
2018-11-01T04:04:41.155Z,9.40
2018-11-01T04:07:09.624Z,9.40
2018-11-01T04:09:38.175Z,9.30
2018-11-01T04:12:06.779Z,9.20
2018-11-01T04:14:35.268Z,9.20
2018-11-01T04:17:03.805Z,9.10
2018-11-01T04:19:32.350Z,9.10
2018-11-01T04:22:05.020Z,9.10
2018-11-01T04:24:34.334Z,9.20
2018-11-01T04:27:03.273Z,9.40
2018-11-01T04:29:32.267Z,9.50
2018-11-01T04:32:00.765Z,9.80
2018-11-01T04:34:29.245Z,9.90
2018-11-01T04:36:57.712Z,9.90
2018-11-01T04:39:26.231Z,10.00
2018-11-01T04:41:54.775Z,10.00
2018-11-01T04:44:23.349Z,10.00
2018-11-01T04:46:51.865Z,10.10
2018-11-01T04:49:20.343Z,10.10
2018-11-01T04:51:48.859Z,10.00
2018-11-01T04:54:17.387Z,9.90
2018-11-01T04:56:45.864Z,9.90
2018-11-01T04:59:14.478Z,9.90
2018-11-01T05:01:42.942Z,9.80
2018-11-01T05:04:11.434Z,9.80
2018-11-01T05:06:43.058Z,9.90
2018-11-01T05:09:11.576Z,10.10
2018-11-01T05:11:40.159Z,10.20
2018-11-01T05:14:08.623Z,10.30
2018-11-01T05:16:37.121Z,10.40
2018-11-01T05:19:06.235Z,10.30
2018-11-01T05:21:35.810Z,10.20
2018-11-01T05:24:04.332Z,10.20
2018-11-01T05:26:33.700Z,10.30
2018-11-01T05:29:02.740Z,10.50
2018-11-01T05:31:32.136Z,10.50
2018-11-01T05:34:00.702Z,10.70
2018-11-01T05:36:29.215Z,10.80
2018-11-01T05:38:58.318Z,10.80
2018-11-01T05:41:26.917Z,10.60
2018-11-01T05:43:55.546Z,10.50
2018-11-01T05:46:30.599Z,10.50
2018-11-01T05:49:00.821Z,10.50
2018-11-01T05:51:29.660Z,10.80
2018-11-01T05:53:58.877Z,10.70
2018-11-01T05:56:27.514Z,10.80
2018-11-01T05:58:56.059Z,11.00
2018-11-01T06:01:29.541Z,11.10
2018-11-01T06:03:58.155Z,11.20
2018-11-01T06:06:26.835Z,11.10
2018-11-01T06:08:56.059Z,11.10
2018-11-01T06:11:24.655Z,11.10
2018-11-01T06:13:53.239Z,11.20
2018-11-01T06:16:22.454Z,11.30
2018-11-01T06:18:51.061Z,11.40
2018-11-01T06:21:19.699Z,11.50
2018-11-01T06:23:48.305Z,11.50
2018-11-01T06:26:17.503Z,11.60
2018-11-01T06:28:46.052Z,11.70
2018-11-01T06:31:15.572Z,11.70
2018-11-01T06:33:45.032Z,11.80
2018-11-01T06:36:15.605Z,11.80
2018-11-01T06:38:44.269Z,11.80
2018-11-01T06:41:12.850Z,11.90
2018-11-01T06:43:41.556Z,12.10
2018-11-01T06:46:10.297Z,12.20
2018-11-01T06:48:39.057Z,12.30
2018-11-01T06:51:09.764Z,12.40
2018-11-01T06:53:38.563Z,12.50
2018-11-01T06:56:07.656Z,12.50
2018-11-01T06:58:43.006Z,12.60
2018-11-01T07:01:11.556Z,12.70
2018-11-01T07:03:40.142Z,12.70
2018-11-01T07:06:08.805Z,12.80
2018-11-01T07:08:37.368Z,12.90
2018-11-01T07:11:06.415Z,12.90
2018-11-01T07:13:35.029Z,12.90
2018-11-01T07:16:03.608Z,13.10
2018-11-01T07:18:32.132Z,13.50
2018-11-01T07:21:00.760Z,14.00
2018-11-01T07:23:29.421Z,14.50
2018-11-01T07:25:58.065Z,14.70
2018-11-01T07:28:26.639Z,14.80
2018-11-01T07:30:55.356Z,14.80
2018-11-01T07:33:24.035Z,15.20
2018-11-01T07:35:53.852Z,15.30
2018-11-01T07:38:26.433Z,15.10
2018-11-01T07:40:55.028Z,15.00
2018-11-01T07:43:23.720Z,14.70
2018-11-01T07:45:52.325Z,14.60
2018-11-01T07:48:20.877Z,14.50
2018-11-01T07:50:49.360Z,14.60
2018-11-01T07:53:17.786Z,14.90
2018-11-01T07:55:46.372Z,15.10
2018-11-01T07:58:18.473Z,15.30
2018-11-01T08:00:47.032Z,15.40
2018-11-01T08:03:15.736Z,15.70
2018-11-01T08:05:47.433Z,15.90
2018-11-01T08:08:16.039Z,16.10
2018-11-01T08:10:44.601Z,16.20
2018-11-01T08:13:13.374Z,16.20
2018-11-01T08:15:42.001Z,16.20
2018-11-01T08:18:10.685Z,16.40
2018-11-01T08:20:39.488Z,16.40
2018-11-01T08:23:08.241Z,16.60
2018-11-01T08:25:36.850Z,16.80
2018-11-01T08:28:05.670Z,17.10
2018-11-01T08:30:34.127Z,17.20
2018-11-01T08:33:02.795Z,17.40
2018-11-01T08:35:31.387Z,17.60
2018-11-01T08:37:59.879Z,17.90
2018-11-01T08:40:28.333Z,18.00
2018-11-01T08:42:56.858Z,18.10
2018-11-01T08:45:25.322Z,18.00
2018-11-01T08:47:53.837Z,17.80
2018-11-01T08:50:22.360Z,17.50
2018-11-01T08:52:50.944Z,17.70
2018-11-01T08:55:19.527Z,17.90
2018-11-01T08:57:48.225Z,18.40
2018-11-01T09:00:16.876Z,19.10
2018-11-01T09:02:45.638Z,19.00
2018-11-01T09:05:14.812Z,19.00
2018-11-01T09:07:43.559Z,19.50
2018-11-01T09:10:14.062Z,19.90
2018-11-01T09:12:42.821Z,19.90
2018-11-01T09:15:12.562Z,19.20
2018-11-01T09:17:41.300Z,18.90
2018-11-01T09:20:10.410Z,18.90
2018-11-01T09:22:39.535Z,18.90
2018-11-01T09:25:08.348Z,19.10
2018-11-01T09:27:36.945Z,19.00
2018-11-01T09:30:08.068Z,18.90
2018-11-01T09:32:36.589Z,18.90
2018-11-01T09:35:05.711Z,18.90
2018-11-01T09:37:34.691Z,19.10
2018-11-01T09:40:03.231Z,19.00
2018-11-01T09:42:31.722Z,19.00
2018-11-01T09:45:00.751Z,19.40
2018-11-01T09:47:29.730Z,19.90
2018-11-01T09:49:57.908Z,19.90
2018-11-01T09:52:26.487Z,19.40
2018-11-01T09:54:55.022Z,19.40
2018-11-01T09:57:23.548Z,19.20
2018-11-01T09:59:52.046Z,18.90
2018-11-01T10:02:20.674Z,18.60
2018-11-01T10:04:49.134Z,18.50
2018-11-01T10:07:17.713Z,18.70
2018-11-01T10:09:46.241Z,18.80
2018-11-01T10:12:15.785Z,18.80
2018-11-01T10:14:44.274Z,19.00
2018-11-01T10:17:14.168Z,19.20
2018-11-01T10:19:42.357Z,19.00
2018-11-01T10:22:11.072Z,18.90
2018-11-01T10:24:39.922Z,18.90
2018-11-01T10:27:19.230Z,18.80
2018-11-01T10:29:37.720Z,18.80
2018-11-01T10:32:07.124Z,19.10
2018-11-01T10:34:35.611Z,19.70
2018-11-01T10:37:05.776Z,20.00
2018-11-01T10:39:34.257Z,20.10
2018-11-01T10:42:02.761Z,20.10
2018-11-01T10:44:31.299Z,19.70
2018-11-01T10:47:00.061Z,20.10
2018-11-01T10:49:28.632Z,20.00
2018-11-01T10:51:57.411Z,19.60
2018-11-01T10:54:26.019Z,19.70
2018-11-01T10:56:54.477Z,19.50
2018-11-01T10:59:23.072Z,19.70
2018-11-01T11:01:55.809Z,19.80
2018-11-01T11:04:24.416Z,19.80
2018-11-01T11:06:53.121Z,19.70
2018-11-01T11:09:21.681Z,19.80
2018-11-01T11:11:50.250Z,20.00
2018-11-01T11:14:18.911Z,20.00
2018-11-01T11:16:47.435Z,20.70
2018-11-01T11:19:15.942Z,21.20
2018-11-01T11:21:44.618Z,21.20
2018-11-01T11:24:13.238Z,21.10
2018-11-01T11:26:41.734Z,21.10
2018-11-01T11:29:10.392Z,20.90
2018-11-01T11:31:38.909Z,20.90
2018-11-01T11:34:07.870Z,21.00
2018-11-01T11:36:36.445Z,21.50
2018-11-01T11:39:08.966Z,21.10
2018-11-01T11:41:37.519Z,20.80
2018-11-01T11:44:06.121Z,20.60
2018-11-01T11:46:34.716Z,20.30
2018-11-01T11:49:03.429Z,19.90
2018-11-01T11:51:33.193Z,19.80
2018-11-01T11:54:05.907Z,19.60
2018-11-01T11:56:34.552Z,19.40
2018-11-01T11:59:03.779Z,19.20
2018-11-01T12:01:32.333Z,19.10
2018-11-01T12:04:00.907Z,19.30
2018-11-01T12:06:29.629Z,19.30
2018-11-01T12:08:58.200Z,19.50
2018-11-01T12:11:26.989Z,20.00
2018-11-01T12:13:55.637Z,20.30
2018-11-01T12:16:24.300Z,20.80
2018-11-01T12:18:52.928Z,21.20
2018-11-01T12:21:21.455Z,21.30
2018-11-01T12:23:50.444Z,20.70
2018-11-01T12:26:25.841Z,20.50
2018-11-01T12:28:57.554Z,20.40
2018-11-01T12:31:26.076Z,20.20
2018-11-01T12:33:57.807Z,20.20
2018-11-01T12:36:30.682Z,20.30
2018-11-01T12:39:00.139Z,20.20
2018-11-01T12:41:29.340Z,20.20
2018-11-01T12:43:59.479Z,20.10
2018-11-01T12:46:32.255Z,20.20
2018-11-01T13:52:48.721Z,18.60
2018-11-01T13:55:17.300Z,18.40
2018-11-01T13:57:45.898Z,18.30
2018-11-01T14:00:15.333Z,18.20
2018-11-01T14:02:43.976Z,18.10
2018-11-01T14:05:13.761Z,18.00
2018-11-01T14:07:42.878Z,17.90
2018-11-01T14:10:12.585Z,17.90
2018-11-01T14:12:41.151Z,17.90
2018-11-01T14:15:10.856Z,17.80
2018-11-01T14:17:39.240Z,17.80
2018-11-01T14:20:09.355Z,17.70
2018-11-01T14:22:37.849Z,17.60
2018-11-01T14:25:10.952Z,17.50
2018-11-01T14:27:39.524Z,17.60
2018-11-01T14:30:11.453Z,17.60
2018-11-01T14:32:43.755Z,17.50
2018-11-01T14:35:13.421Z,17.50
2018-11-01T14:37:41.929Z,17.50
2018-11-01T14:40:11.796Z,17.50
2018-11-01T14:42:40.741Z,17.50
2018-11-01T14:45:09.715Z,17.50
2018-11-01T14:47:38.565Z,17.40
2018-11-01T14:50:08.007Z,17.60
2018-11-01T14:52:36.884Z,17.40
2018-11-01T14:55:06.596Z,17.20
2018-11-01T14:57:35.572Z,17.10
2018-11-01T15:00:02.561Z,17.20
2018-11-01T15:02:31.050Z,17.10
2018-11-01T15:04:59.620Z,17.10
2018-11-01T15:07:28.110Z,17.10
2018-11-01T15:09:56.572Z,17.10
2018-11-01T15:12:25.085Z,17.00
2018-11-01T15:14:53.582Z,16.90
2018-11-01T15:17:22.048Z,16.70
2018-11-01T15:19:50.709Z,16.50
2018-11-01T15:22:19.179Z,16.60
2018-11-01T15:24:47.609Z,16.50
2018-11-01T15:27:16.140Z,16.40
2018-11-01T15:29:44.620Z,16.30
2018-11-01T15:32:17.262Z,16.20
2018-11-01T15:34:45.775Z,16.10
2018-11-01T15:37:14.290Z,16.10
2018-11-01T15:39:42.769Z,16.00
2018-11-01T15:42:11.200Z,16.10
2018-11-01T15:44:39.974Z,16.10
2018-11-01T15:47:08.437Z,16.10
2018-11-01T15:49:36.911Z,16.10
2018-11-01T15:52:05.654Z,16.20
2018-11-01T15:54:34.226Z,16.30
2018-11-01T15:57:02.737Z,16.20
2018-11-01T15:59:31.413Z,16.30
2018-11-01T16:01:59.880Z,16.20
2018-11-01T16:04:28.335Z,16.20
2018-11-01T16:06:56.840Z,16.20
2018-11-01T16:09:25.304Z,16.10
2018-11-01T16:11:53.782Z,16.00
2018-11-01T16:14:22.395Z,15.90
2018-11-01T16:16:50.955Z,15.90
2018-11-01T16:19:19.409Z,15.80
2018-11-01T16:21:47.922Z,15.60
2018-11-01T16:24:16.365Z,15.40
2018-11-01T16:26:44.828Z,15.40
2018-11-01T16:29:13.653Z,15.40
2018-11-01T16:31:42.120Z,15.50
2018-11-01T16:34:10.728Z,15.50
2018-11-01T16:36:39.341Z,15.40
2018-11-01T16:39:12.035Z,15.30
2018-11-01T16:41:40.642Z,15.30
2018-11-01T16:44:09.869Z,15.30
2018-11-01T16:46:38.342Z,15.20
2018-11-01T16:49:08.085Z,15.20
2018-11-01T16:51:36.632Z,15.20
2018-11-01T16:54:05.216Z,15.20
2018-11-01T16:56:33.752Z,15.10
2018-11-01T16:59:02.241Z,15.30
2018-11-01T17:01:30.875Z,15.60
2018-11-01T17:03:59.471Z,15.60
2018-11-01T17:06:28.029Z,15.60
2018-11-01T17:08:56.501Z,15.70
2018-11-01T17:11:25.056Z,15.70
2018-11-01T17:13:53.560Z,15.70
2018-11-01T17:16:22.193Z,15.70
2018-11-01T17:18:50.735Z,15.70
2018-11-01T17:21:21.090Z,15.60
2018-11-01T17:23:49.578Z,15.70
2018-11-01T17:26:18.125Z,15.80
2018-11-01T17:28:46.993Z,15.70
2018-11-01T17:31:15.598Z,15.50
2018-11-01T17:33:44.052Z,15.40
2018-11-01T17:36:12.566Z,15.50
2018-11-01T17:38:41.122Z,15.50
2018-11-01T17:41:09.583Z,15.30
2018-11-01T17:43:38.176Z,15.20
2018-11-01T17:46:07.028Z,15.30
2018-11-01T17:48:35.559Z,15.40
2018-11-01T17:51:04.096Z,15.40
2018-11-01T17:53:32.617Z,15.40
2018-11-01T17:56:01.071Z,15.30
2018-11-01T17:58:29.581Z,15.20
2018-11-01T18:00:58.158Z,15.30
2018-11-01T18:03:26.621Z,15.40
2018-11-01T18:05:55.101Z,15.40
2018-11-01T18:08:23.712Z,15.20
2018-11-01T18:10:52.085Z,15.10
2018-11-01T18:13:20.586Z,15.10
2018-11-01T18:15:49.100Z,15.10
2018-11-01T18:18:17.572Z,15.20
2018-11-01T18:20:46.164Z,15.10
2018-11-01T18:23:14.765Z,15.10
2018-11-01T18:25:47.460Z,15.00
2018-11-01T18:28:16.600Z,15.10
2018-11-01T18:30:45.103Z,15.10
2018-11-01T18:33:13.653Z,14.90
2018-11-01T18:35:42.098Z,14.90
2018-11-01T18:38:10.566Z,14.80
2018-11-01T18:40:39.072Z,14.70
2018-11-01T18:43:07.669Z,14.60
2018-11-01T18:45:36.417Z,14.60
2018-11-01T18:48:06.033Z,14.50
2018-11-01T18:50:34.815Z,14.50
2018-11-01T18:53:03.506Z,14.50
2018-11-01T18:55:36.182Z,14.60
2018-11-01T18:58:05.198Z,14.60
2018-11-01T19:00:33.790Z,14.70
2018-11-01T19:03:02.376Z,14.80
2018-11-01T19:05:31.012Z,14.80
2018-11-01T19:07:59.685Z,14.80
2018-11-01T19:10:28.387Z,14.90
2018-11-01T19:12:56.964Z,14.80
2018-11-01T19:15:26.460Z,14.70
2018-11-01T19:17:55.075Z,14.50
2018-11-01T19:20:23.547Z,14.30
2018-11-01T19:22:52.034Z,14.30
2018-11-01T19:25:20.634Z,14.20
2018-11-01T19:27:49.564Z,14.20
2018-11-01T19:30:18.057Z,14.10
2018-11-01T19:32:46.541Z,14.10
2018-11-01T19:35:16.912Z,14.10
2018-11-01T19:37:48.516Z,14.10
2018-11-01T19:40:19.110Z,14.10
2018-11-01T19:42:47.726Z,14.10
2018-11-01T19:45:19.351Z,14.00
2018-11-01T19:47:49.090Z,13.90
2018-11-01T19:50:20.631Z,13.90
2018-11-01T19:52:50.041Z,13.90
2018-11-01T19:55:22.653Z,13.90
2018-11-01T19:57:52.109Z,13.90
2018-11-01T20:00:21.642Z,13.80
2018-11-01T20:02:50.458Z,13.80
2018-11-01T20:05:19.920Z,14.00
2018-11-01T20:07:49.538Z,14.20
2018-11-01T20:10:18.084Z,14.20
2018-11-01T20:12:46.696Z,14.10
2018-11-01T20:15:15.272Z,14.00
2018-11-01T20:17:44.961Z,13.90
2018-11-01T20:20:13.967Z,13.80
2018-11-01T20:22:43.685Z,13.70
2018-11-01T20:25:12.260Z,13.70
2018-11-01T20:27:41.019Z,13.80
2018-11-01T20:30:11.731Z,13.90
2018-11-01T20:32:40.871Z,13.90
2018-11-01T20:35:10.749Z,14.00
2018-11-01T20:37:39.418Z,14.00
2018-11-01T20:40:09.188Z,14.20
2018-11-01T20:42:37.762Z,14.40
2018-11-01T20:45:08.342Z,14.40
2018-11-01T20:47:37.032Z,14.30
2018-11-01T20:50:06.645Z,14.30
2018-11-01T20:52:35.276Z,14.40
2018-11-01T20:55:03.861Z,14.50
2018-11-01T20:57:32.473Z,14.60
2018-11-01T21:00:01.137Z,14.70
2018-11-01T21:02:29.728Z,14.60
2018-11-01T21:04:58.553Z,14.60
2018-11-01T21:07:26.923Z,14.80
2018-11-01T21:09:55.437Z,14.90
2018-11-01T21:12:23.915Z,15.00
2018-11-01T21:14:52.467Z,15.10
2018-11-01T21:17:21.255Z,15.00
2018-11-01T21:19:49.732Z,15.10
2018-11-01T21:22:18.652Z,15.10
2018-11-01T21:24:47.237Z,15.20
2018-11-01T21:27:15.921Z,15.10
2018-11-01T21:29:44.617Z,15.10
2018-11-01T21:32:13.090Z,15.20
2018-11-01T21:34:41.633Z,15.20
2018-11-01T21:37:10.170Z,15.20
2018-11-01T21:39:38.724Z,15.30
2018-11-01T21:42:07.318Z,15.30
2018-11-01T21:44:35.987Z,15.30
2018-11-01T21:47:04.518Z,15.20
2018-11-01T21:49:33.241Z,15.20
2018-11-01T21:52:01.756Z,15.10
2018-11-01T21:54:30.312Z,15.00
2018-11-01T21:56:59.116Z,15.00
2018-11-01T21:59:27.599Z,15.00
2018-11-01T22:01:56.202Z,14.90
2018-11-01T22:04:24.672Z,14.80
2018-11-01T22:06:53.237Z,14.70
2018-11-01T22:09:22.133Z,14.60
2018-11-01T22:11:50.680Z,14.50
2018-11-01T22:14:19.142Z,14.50
2018-11-01T22:16:47.633Z,14.40
2018-11-01T22:19:16.601Z,14.40
2018-11-01T22:21:45.406Z,14.30
2018-11-01T22:24:14.238Z,14.30
2018-11-01T22:26:42.733Z,14.40
2018-11-01T22:29:11.252Z,14.40
2018-11-01T22:31:39.790Z,14.30
2018-11-01T22:34:08.292Z,14.30
2018-11-01T22:36:36.829Z,14.20
2018-11-01T22:39:07.091Z,14.00
2018-11-01T22:41:35.581Z,14.00
2018-11-01T22:44:04.111Z,14.10
2018-11-01T22:46:39.251Z,13.90
2018-11-01T22:49:07.731Z,13.90
2018-11-01T22:51:36.271Z,13.90
2018-11-01T22:54:04.921Z,13.80
2018-11-01T22:56:33.379Z,13.80
2018-11-01T22:59:01.820Z,13.70
2018-11-01T23:01:30.301Z,13.70
2018-11-01T23:03:58.857Z,13.70
2018-11-01T23:06:27.242Z,13.70
2018-11-01T23:08:55.851Z,13.70
2018-11-01T23:11:24.349Z,13.60
2018-11-01T23:13:52.788Z,13.50
2018-11-01T23:16:21.418Z,13.50
2018-11-01T23:18:53.067Z,13.50
2018-11-01T23:21:21.543Z,13.60
2018-11-01T23:23:50.023Z,13.60
2018-11-01T23:26:18.549Z,13.70
2018-11-01T23:28:46.972Z,13.70
2018-11-01T23:31:15.451Z,13.70
2018-11-01T23:33:44.048Z,13.60
2018-11-01T23:36:11.708Z,13.60
2018-11-01T23:38:44.399Z,13.50
2018-11-01T23:41:17.041Z,13.50
2018-11-01T23:43:50.051Z,13.40
2018-11-01T23:46:22.662Z,13.40
2018-11-01T23:48:55.321Z,13.50
2018-11-01T23:51:23.823Z,13.50
2018-11-01T23:53:52.665Z,13.50
2018-11-01T23:56:21.195Z,13.40
2018-11-01T23:58:49.623Z,13.30
